createdAt,value
2024-03-27T00:00:17.802Z,77.95
2024-03-27T00:01:17.858Z,78.07
2024-03-27T00:02:17.938Z,78.26
2024-03-27T00:03:18.019Z,78.93
2024-03-27T00:04:18.115Z,77.60
2024-03-27T00:05:18.151Z,78.68
2024-03-27T00:06:18.226Z,77.91
2024-03-27T00:07:18.291Z,77.63
2024-03-27T00:08:18.375Z,78.97
2024-03-27T00:09:18.445Z,79.27
2024-03-27T00:10:18.516Z,77.87
2024-03-27T00:11:18.584Z,78.90
2024-03-27T00:12:18.676Z,78.64
2024-03-27T00:13:18.739Z,78.96
2024-03-27T00:14:18.963Z,79.78
2024-03-27T00:15:18.915Z,79.79
2024-03-27T00:16:18.964Z,77.25
2024-03-27T00:17:19.039Z,76.83
2024-03-27T00:18:19.110Z,79.53
2024-03-27T00:19:19.170Z,77.97
2024-03-27T00:20:19.262Z,77.52
2024-03-27T00:21:19.335Z,79.64
2024-03-27T00:22:19.410Z,77.37
2024-03-27T00:23:19.486Z,77.18
2024-03-27T00:24:19.566Z,78.29
2024-03-27T00:25:19.663Z,77.62
2024-03-27T00:26:19.689Z,77.12
2024-03-27T00:27:19.759Z,78.85
2024-03-27T00:28:19.840Z,78.14
2024-03-27T00:29:19.979Z,78.62
2024-03-27T00:30:20.537Z,77.07
2024-03-27T00:31:20.061Z,77.90
2024-03-27T00:32:20.142Z,78.81
2024-03-27T00:33:20.229Z,76.02
2024-03-27T00:34:20.312Z,76.55
2024-03-27T00:35:20.378Z,79.04
2024-03-27T00:36:20.495Z,79.11
2024-03-27T00:37:20.541Z,78.37
2024-03-27T00:38:20.604Z,77.86
2024-03-27T00:39:20.687Z,76.73
2024-03-27T00:40:20.757Z,76.35
2024-03-27T00:41:20.849Z,77.57
2024-03-27T00:42:20.942Z,77.65
2024-03-27T00:43:20.988Z,77.38
2024-03-27T00:44:21.081Z,77.46
2024-03-27T00:45:21.138Z,78.16
2024-03-27T00:46:21.212Z,77.33
2024-03-27T00:47:21.279Z,77.18
2024-03-27T00:48:21.370Z,77.62
2024-03-27T00:49:21.430Z,78.23
2024-03-27T00:50:21.510Z,77.71
2024-03-27T00:51:21.583Z,77.71
2024-03-27T00:52:21.659Z,78.12
2024-03-27T00:53:21.745Z,77.06
2024-03-27T00:54:21.834Z,76.88
2024-03-27T00:55:21.904Z,77.02
2024-03-27T00:56:27.056Z,76.74
2024-03-27T00:57:21.991Z,76.79
2024-03-27T00:58:21.987Z,76.31
2024-03-27T00:59:21.980Z,77.57
2024-03-27T01:00:21.983Z,77.81
2024-03-27T01:01:21.995Z,78.05
2024-03-27T01:02:22.022Z,76.67
2024-03-27T01:03:21.999Z,78.12
2024-03-27T01:04:22.008Z,76.07
2024-03-27T01:05:22.011Z,77.01
2024-03-27T01:06:22.022Z,76.89
2024-03-27T01:07:22.010Z,77.94
2024-03-27T01:08:22.098Z,78.21
2024-03-27T01:09:22.184Z,75.79
2024-03-27T01:10:22.246Z,76.95
2024-03-27T01:11:22.326Z,77.15
2024-03-27T01:12:22.402Z,75.42
2024-03-27T01:13:22.484Z,79.02
2024-03-27T01:14:22.555Z,77.78
2024-03-27T01:15:22.622Z,76.85
2024-03-27T01:16:22.705Z,77.17
2024-03-27T01:17:22.806Z,78.41
2024-03-27T01:18:22.876Z,77.07
2024-03-27T01:19:22.957Z,77.88
2024-03-27T01:20:23.032Z,77.56
2024-03-27T01:21:23.107Z,78.31
2024-03-27T01:22:23.186Z,76.22
2024-03-27T01:23:23.264Z,77.89
2024-03-27T01:24:23.361Z,76.74
2024-03-27T01:25:23.435Z,76.53
2024-03-27T01:26:23.520Z,76.75
2024-03-27T01:27:23.589Z,76.73
2024-03-27T01:28:23.675Z,76.17
2024-03-27T01:29:23.748Z,76.93
2024-03-27T01:30:23.820Z,76.09
2024-03-27T01:31:23.893Z,77.05
2024-03-27T01:32:23.990Z,76.93
2024-03-27T01:33:24.052Z,77.62
2024-03-27T01:34:24.152Z,79.18
2024-03-27T01:35:24.204Z,76.90
2024-03-27T01:36:24.280Z,76.93
2024-03-27T01:37:24.367Z,76.99
2024-03-27T01:38:24.449Z,76.80
2024-03-27T01:39:24.531Z,74.89
2024-03-27T01:40:24.596Z,75.34
2024-03-27T01:41:24.676Z,77.40
2024-03-27T01:42:24.775Z,78.53
2024-03-27T01:43:24.882Z,74.71
2024-03-27T01:44:24.939Z,75.21
2024-03-27T01:45:25.004Z,75.60
2024-03-27T01:46:25.080Z,77.43
2024-03-27T01:47:25.156Z,77.13
2024-03-27T01:48:25.239Z,77.33
2024-03-27T01:49:25.330Z,76.76
2024-03-27T01:50:25.412Z,75.13
2024-03-27T01:51:25.490Z,75.60
2024-03-27T01:52:25.579Z,76.15
2024-03-27T01:53:25.675Z,75.59
2024-03-27T01:54:25.726Z,76.49
2024-03-27T01:55:25.887Z,74.87
2024-03-27T01:56:25.888Z,78.04
2024-03-27T01:57:25.964Z,77.15
2024-03-27T01:58:26.044Z,75.76
2024-03-27T01:59:26.130Z,76.14
2024-03-27T02:00:26.324Z,74.77
2024-03-27T02:01:26.263Z,76.03
2024-03-27T02:02:26.379Z,77.16
2024-03-27T02:03:26.434Z,74.67
2024-03-27T02:04:26.502Z,77.41
2024-03-27T02:05:26.574Z,75.47
2024-03-27T02:06:26.700Z,76.55
2024-03-27T02:07:26.756Z,75.96
2024-03-27T02:08:26.832Z,75.57
2024-03-27T02:09:26.925Z,76.60
2024-03-27T02:10:26.981Z,76.55
2024-03-27T02:11:27.084Z,75.18
2024-03-27T02:12:27.164Z,74.54
2024-03-27T02:13:27.238Z,73.95
2024-03-27T02:14:27.309Z,75.86
2024-03-27T02:15:27.407Z,74.90
2024-03-27T02:16:27.461Z,75.50
2024-03-27T02:17:27.566Z,74.87
2024-03-27T02:18:27.605Z,76.27
2024-03-27T02:19:27.721Z,74.91
2024-03-27T02:20:27.783Z,77.91
2024-03-27T02:21:27.886Z,75.79
2024-03-27T02:22:28.011Z,76.25
2024-03-27T02:23:28.010Z,74.48
2024-03-27T02:24:28.090Z,76.26
2024-03-27T02:25:28.170Z,73.56
2024-03-27T02:26:28.247Z,75.11
2024-03-27T02:27:28.382Z,75.32
2024-03-27T02:28:28.400Z,74.43
2024-03-27T02:29:28.476Z,74.25
2024-03-27T02:30:28.554Z,76.19
2024-03-27T02:31:28.648Z,76.85
2024-03-27T02:32:28.732Z,73.53
2024-03-27T02:33:28.854Z,74.69
2024-03-27T02:34:28.870Z,74.48
2024-03-27T02:35:28.940Z,74.85
2024-03-27T02:36:29.059Z,73.94
2024-03-27T02:37:29.101Z,74.19
2024-03-27T02:38:29.206Z,74.37
2024-03-27T02:39:29.305Z,73.97
2024-03-27T02:40:29.359Z,75.52
2024-03-27T02:41:29.424Z,75.12
2024-03-27T02:42:29.526Z,74.50
2024-03-27T02:43:29.604Z,74.69
2024-03-27T02:44:29.690Z,75.70
2024-03-27T02:45:29.779Z,74.06
2024-03-27T02:46:29.845Z,75.05
2024-03-27T02:47:29.953Z,74.84
2024-03-27T02:48:30.033Z,73.94
2024-03-27T02:49:30.135Z,74.28
2024-03-27T02:50:30.171Z,75.86
2024-03-27T02:51:30.294Z,74.84
2024-03-27T02:52:30.345Z,73.93
2024-03-27T02:53:30.425Z,72.67
2024-03-27T02:54:30.509Z,75.32
2024-03-27T02:55:30.595Z,72.41
2024-03-27T02:56:30.686Z,75.18
2024-03-27T02:57:30.762Z,74.06
2024-03-27T02:58:30.851Z,74.26
2024-03-27T02:59:30.940Z,75.58
2024-03-27T03:00:31.085Z,74.49
2024-03-27T03:01:31.089Z,73.65
2024-03-27T03:02:31.190Z,73.67
2024-03-27T03:03:31.293Z,74.77
2024-03-27T03:04:31.355Z,75.03
2024-03-27T03:05:31.436Z,72.61
2024-03-27T03:06:31.532Z,73.41
2024-03-27T03:07:31.647Z,73.92
2024-03-27T03:08:31.719Z,75.53
2024-03-27T03:09:31.829Z,74.60
2024-03-27T03:10:31.883Z,71.92
2024-03-27T03:11:31.948Z,75.58
2024-03-27T03:12:32.040Z,73.96
2024-03-27T03:13:32.130Z,72.82
2024-03-27T03:14:32.211Z,74.88
2024-03-27T03:15:32.312Z,74.49
2024-03-27T03:16:32.386Z,74.97
2024-03-27T03:17:32.489Z,73.78
2024-03-27T03:18:32.570Z,73.24
2024-03-27T03:19:32.642Z,74.59
2024-03-27T03:20:32.720Z,73.94
2024-03-27T03:21:32.797Z,74.94
2024-03-27T03:22:32.870Z,73.87
2024-03-27T03:23:32.947Z,75.08
2024-03-27T03:24:33.042Z,74.99
2024-03-27T03:25:33.120Z,72.34
2024-03-27T03:26:33.202Z,73.77
2024-03-27T03:27:33.322Z,73.84
2024-03-27T03:28:33.387Z,74.40
2024-03-27T03:29:33.459Z,73.14
2024-03-27T03:30:33.574Z,74.36
2024-03-27T03:31:33.618Z,73.40
2024-03-27T03:32:33.702Z,74.96
2024-03-27T03:33:33.821Z,74.04
2024-03-27T03:34:33.882Z,73.52
2024-03-27T03:35:33.959Z,73.80
2024-03-27T03:36:34.071Z,74.40
2024-03-27T03:37:34.134Z,73.56
2024-03-27T03:38:34.210Z,73.51
2024-03-27T03:39:34.351Z,72.94
2024-03-27T03:40:34.385Z,73.85
2024-03-27T03:41:34.472Z,72.76
2024-03-27T03:42:34.594Z,74.30
2024-03-27T03:43:34.646Z,73.49
2024-03-27T03:44:34.729Z,74.46
2024-03-27T03:45:34.825Z,73.36
2024-03-27T03:46:34.902Z,72.43
2024-03-27T03:47:34.991Z,72.06
2024-03-27T03:48:35.084Z,72.27
2024-03-27T03:49:35.163Z,73.09
2024-03-27T03:50:35.236Z,72.35
2024-03-27T03:51:35.337Z,73.58
2024-03-27T03:52:35.388Z,74.21
2024-03-27T03:53:35.490Z,73.45
2024-03-27T03:54:35.614Z,73.48
2024-03-27T03:55:35.648Z,73.39
2024-03-27T03:56:35.733Z,71.94
2024-03-27T03:57:35.867Z,72.41
2024-03-27T03:58:35.918Z,72.94
2024-03-27T03:59:35.976Z,73.60
2024-03-27T04:00:36.059Z,72.86
2024-03-27T04:01:36.141Z,74.57
2024-03-27T04:02:36.232Z,72.40
2024-03-27T04:03:36.325Z,72.34
2024-03-27T04:04:36.392Z,74.17
2024-03-27T04:05:36.493Z,73.17
2024-03-27T04:06:36.602Z,72.80
2024-03-27T04:07:36.645Z,74.15
2024-03-27T04:08:36.719Z,71.16
2024-03-27T04:09:36.817Z,73.47
2024-03-27T04:10:36.896Z,71.56
2024-03-27T04:11:36.976Z,73.33
2024-03-27T04:12:39.326Z,73.19
2024-03-27T04:13:37.051Z,72.47
2024-03-27T04:14:37.064Z,73.25
2024-03-27T04:15:37.082Z,72.29
2024-03-27T04:16:37.054Z,73.21
2024-03-27T04:17:37.053Z,72.88
2024-03-27T04:18:37.080Z,71.92
2024-03-27T04:19:37.073Z,72.91
2024-03-27T04:20:37.107Z,74.60
2024-03-27T04:21:37.089Z,73.01
2024-03-27T04:22:37.051Z,71.62
2024-03-27T04:23:37.053Z,72.93
2024-03-27T04:24:37.081Z,73.45
2024-03-27T04:25:49.771Z,73.25
2024-03-27T04:26:38.063Z,73.29
2024-03-27T04:27:37.096Z,73.43
2024-03-27T04:28:37.058Z,74.28
2024-03-27T04:29:37.066Z,74.24
2024-03-27T04:30:37.084Z,73.97
2024-03-27T04:31:37.122Z,72.37
2024-03-27T04:32:37.124Z,73.34
2024-03-27T04:33:37.113Z,73.53
2024-03-27T04:34:37.091Z,73.52
2024-03-27T04:35:37.098Z,72.03
2024-03-27T04:36:37.125Z,70.38
2024-03-27T04:37:37.211Z,73.96
2024-03-27T04:38:37.281Z,71.90
2024-03-27T04:39:37.390Z,73.85
2024-03-27T04:40:44.641Z,50.00
2024-03-27T04:41:44.646Z,50.00
2024-03-27T04:42:44.628Z,50.00
2024-03-27T04:43:44.628Z,50.00
2024-03-27T04:44:44.632Z,50.00
2024-03-27T04:45:44.646Z,51.75
2024-03-27T04:46:44.639Z,51.13
2024-03-27T04:47:44.645Z,52.00
2024-03-27T04:48:44.639Z,50.92
2024-03-27T04:49:44.641Z,50.64
2024-03-27T04:50:44.634Z,52.03
2024-03-27T04:51:44.644Z,50.31
2024-03-27T04:52:44.645Z,51.49
2024-03-27T04:53:44.656Z,51.90
2024-03-27T04:54:49.713Z,52.82
2024-03-27T04:55:44.663Z,52.85
2024-03-27T04:56:44.649Z,51.11
2024-03-27T04:57:44.665Z,53.25
2024-03-27T04:58:44.686Z,51.03
2024-03-27T04:59:44.694Z,50.75
2024-03-27T05:00:44.697Z,51.51
2024-03-27T05:01:44.704Z,51.93
2024-03-27T05:02:44.705Z,53.80
2024-03-27T05:03:44.696Z,51.32
2024-03-27T05:04:44.792Z,51.44
2024-03-27T05:05:44.892Z,52.81
2024-03-27T05:06:44.980Z,50.89
2024-03-27T05:07:45.089Z,52.51
2024-03-27T05:08:45.189Z,53.86
2024-03-27T05:09:45.304Z,52.82
2024-03-27T05:10:45.387Z,52.40
2024-03-27T05:11:45.491Z,50.00
2024-03-27T05:12:45.598Z,53.28
2024-03-27T05:13:45.698Z,54.75
2024-03-27T05:14:45.814Z,54.37
2024-03-27T05:15:45.893Z,52.18
2024-03-27T05:16:45.982Z,53.73
2024-03-27T05:17:46.088Z,54.56
2024-03-27T05:18:46.181Z,53.27
2024-03-27T05:19:46.291Z,53.95
2024-03-27T05:20:46.374Z,51.90
2024-03-27T05:21:46.477Z,53.04
2024-03-27T05:22:46.577Z,52.99
2024-03-27T05:23:46.664Z,51.73
2024-03-27T05:24:48.410Z,52.82
2024-03-27T05:25:46.810Z,54.01
2024-03-27T05:26:46.839Z,53.97
2024-03-27T05:27:46.889Z,50.46
2024-03-27T05:28:46.934Z,52.16
2024-03-27T05:29:46.990Z,53.19
2024-03-27T05:30:47.015Z,51.61
2024-03-27T05:31:47.054Z,52.45
2024-03-27T05:32:47.087Z,53.42
2024-03-27T05:33:47.164Z,52.93
2024-03-27T05:34:47.249Z,52.75
2024-03-27T05:35:47.351Z,52.14
2024-03-27T05:36:47.428Z,52.16
2024-03-27T05:37:47.543Z,53.47
2024-03-27T05:38:47.638Z,54.99
2024-03-27T05:39:47.728Z,53.39
2024-03-27T05:40:47.831Z,51.77
2024-03-27T05:41:47.901Z,52.89
2024-03-27T05:42:48.008Z,51.78
2024-03-27T05:43:48.100Z,51.93
2024-03-27T05:44:48.239Z,52.32
2024-03-27T05:45:48.295Z,52.85
2024-03-27T05:46:48.381Z,52.02
2024-03-27T05:47:48.466Z,51.66
2024-03-27T05:48:48.568Z,53.62
2024-03-27T05:49:48.668Z,50.66
2024-03-27T05:50:48.764Z,50.35
2024-03-27T05:51:48.852Z,50.76
2024-03-27T05:52:48.929Z,51.99
2024-03-27T05:53:49.037Z,53.09
2024-03-27T05:54:49.119Z,52.30
2024-03-27T05:55:49.222Z,51.23
2024-03-27T05:56:49.299Z,52.91
2024-03-27T05:57:49.383Z,53.29
2024-03-27T05:58:49.507Z,51.81
2024-03-27T05:59:49.597Z,51.22
2024-03-27T06:00:49.669Z,53.52
2024-03-27T06:01:49.757Z,52.51
2024-03-27T06:02:49.852Z,52.31
2024-03-27T06:03:49.974Z,53.56
2024-03-27T06:04:50.071Z,51.74
2024-03-27T06:05:50.138Z,52.87
2024-03-27T06:06:50.258Z,52.96
2024-03-27T06:07:50.302Z,52.72
2024-03-27T06:08:50.438Z,53.86
2024-03-27T06:09:50.506Z,53.79
2024-03-27T06:10:50.624Z,51.35
2024-03-27T06:11:50.655Z,50.88
2024-03-27T06:12:50.726Z,54.84
2024-03-27T06:13:50.821Z,54.71
2024-03-27T06:15:50.966Z,53.38
2024-03-27T06:16:50.973Z,53.74
2024-03-27T06:17:51.008Z,53.50
2024-03-27T06:18:51.096Z,52.93
2024-03-27T06:19:51.091Z,53.38
2024-03-27T06:20:51.129Z,52.61
2024-03-27T06:21:51.140Z,53.80
2024-03-27T06:22:51.178Z,54.45
2024-03-27T06:23:51.220Z,53.64
2024-03-27T06:24:51.252Z,55.43
2024-03-27T06:25:51.275Z,54.93
2024-03-27T06:26:52.311Z,52.07
2024-03-27T06:27:51.335Z,53.03
2024-03-27T06:28:51.363Z,54.10
2024-03-27T06:29:51.410Z,52.45
2024-03-27T06:30:51.437Z,52.73
2024-03-27T06:31:51.468Z,52.39
2024-03-27T06:32:51.506Z,53.80
2024-03-27T06:33:51.587Z,53.70
2024-03-27T06:34:51.565Z,54.61
2024-03-27T06:35:51.613Z,54.87
2024-03-27T06:36:51.706Z,54.18
2024-03-27T06:37:51.782Z,52.76
2024-03-27T06:38:51.876Z,51.79
2024-03-27T06:39:51.964Z,53.41
2024-03-27T06:40:52.074Z,52.63
2024-03-27T06:41:52.137Z,53.80
2024-03-27T06:42:52.290Z,54.21
2024-03-27T06:43:52.302Z,53.90
2024-03-27T06:44:52.597Z,51.95
2024-03-27T06:46:13.496Z,53.97
2024-03-27T06:46:52.486Z,54.10
2024-03-27T06:47:52.489Z,54.70
2024-03-27T06:48:52.484Z,55.72
2024-03-27T06:49:52.484Z,55.63
2024-03-27T06:50:52.490Z,56.38
2024-03-27T06:51:52.489Z,55.16
2024-03-27T06:52:52.493Z,55.83
2024-03-27T06:53:52.503Z,52.97
2024-03-27T06:54:52.503Z,55.52
2024-03-27T06:55:52.502Z,55.17
2024-03-27T06:56:52.494Z,57.23
2024-03-27T06:57:52.493Z,54.99
2024-03-27T06:58:52.496Z,56.37
2024-03-27T06:59:52.503Z,55.81
2024-03-27T07:00:52.493Z,54.07
2024-03-27T07:01:52.499Z,55.59
2024-03-27T07:02:52.497Z,53.70
2024-03-27T07:03:52.489Z,55.30
2024-03-27T07:04:52.506Z,53.43
2024-03-27T07:05:52.506Z,52.44
2024-03-27T07:06:52.512Z,53.39
2024-03-27T07:07:52.492Z,54.02
2024-03-27T07:08:52.496Z,53.85
2024-03-27T07:09:52.501Z,53.51
2024-03-27T07:10:52.506Z,52.53
2024-03-27T07:11:52.509Z,55.16
2024-03-27T07:12:52.512Z,53.19
2024-03-27T07:13:54.282Z,54.31
2024-03-27T07:14:52.500Z,53.83
2024-03-27T07:15:52.548Z,53.09
2024-03-27T07:16:52.550Z,53.99
2024-03-27T07:17:52.555Z,54.83
2024-03-27T07:18:52.553Z,53.62
2024-03-27T07:19:52.559Z,53.82
2024-03-27T07:20:52.567Z,51.60
2024-03-27T07:21:52.557Z,53.27
2024-03-27T07:22:53.301Z,55.37
2024-03-27T07:23:52.555Z,54.49
2024-03-27T07:24:52.618Z,54.38
2024-03-27T07:25:52.581Z,53.01
2024-03-27T07:26:52.558Z,53.81
2024-03-27T07:27:52.551Z,54.82
2024-03-27T07:28:52.551Z,55.27
2024-03-27T07:29:52.564Z,54.34
2024-03-27T07:31:02.453Z,54.55
2024-03-27T07:31:53.597Z,54.58
2024-03-27T07:32:52.563Z,54.81
2024-03-27T07:33:52.552Z,55.13
2024-03-27T07:34:52.561Z,55.01
2024-03-27T07:35:52.558Z,54.17
2024-03-27T07:36:52.562Z,53.98
2024-03-27T07:37:52.568Z,55.58
2024-03-27T07:38:52.602Z,54.44
2024-03-27T07:39:52.606Z,53.79
2024-03-27T07:40:52.597Z,54.23
2024-03-27T07:41:52.604Z,53.95
2024-03-27T07:42:52.606Z,53.70
2024-03-27T07:43:52.610Z,54.09
2024-03-27T07:44:52.602Z,52.77
2024-03-27T07:45:52.660Z,53.55
2024-03-27T07:46:52.712Z,53.61
2024-03-27T07:47:52.792Z,54.35
2024-03-27T07:48:52.869Z,54.00
2024-03-27T07:49:52.958Z,52.42
2024-03-27T07:50:53.012Z,53.53
2024-03-27T07:51:53.090Z,53.42
2024-03-27T07:52:55.446Z,54.23
2024-03-27T07:53:53.164Z,55.17
2024-03-27T07:54:53.165Z,54.07
2024-03-27T07:55:53.178Z,53.68
2024-03-27T07:56:53.186Z,53.64
2024-03-27T07:57:53.183Z,53.68
2024-03-27T07:58:53.163Z,53.01
2024-03-27T07:59:53.165Z,53.09
2024-03-27T08:00:53.176Z,53.45
2024-03-27T08:01:53.175Z,53.24
2024-03-27T08:02:53.158Z,53.19
2024-03-27T08:03:53.164Z,53.80
2024-03-27T08:04:53.177Z,52.99
2024-03-27T08:05:53.171Z,52.94
2024-03-27T08:06:55.696Z,53.72
2024-03-27T08:07:53.177Z,53.75
2024-03-27T08:08:53.186Z,53.18
2024-03-27T08:09:53.781Z,53.77
2024-03-27T08:10:53.188Z,54.01
2024-03-27T08:11:53.182Z,52.95
2024-03-27T08:12:53.178Z,52.48
2024-03-27T08:13:53.188Z,52.51
2024-03-27T08:14:53.173Z,52.17
2024-03-27T08:15:53.182Z,51.45
2024-03-27T08:16:53.194Z,53.13
2024-03-27T08:17:53.185Z,53.74
2024-03-27T08:18:53.207Z,52.28
2024-03-27T08:19:53.187Z,53.09
2024-03-27T08:20:53.173Z,50.87
2024-03-27T08:21:53.177Z,51.15
2024-03-27T08:22:53.181Z,50.37
2024-03-27T08:23:53.218Z,52.93
2024-03-27T08:24:53.228Z,51.05
2024-03-27T08:25:53.226Z,51.44
2024-03-27T08:26:53.226Z,51.29
2024-03-27T08:27:53.294Z,51.42
2024-03-27T08:28:53.245Z,51.16
2024-03-27T08:29:53.231Z,52.26
2024-03-27T08:30:53.244Z,51.47
2024-03-27T08:31:53.237Z,51.23
2024-03-27T08:32:53.243Z,51.84
2024-03-27T08:33:53.243Z,52.08
2024-03-27T08:34:53.253Z,52.08
2024-03-27T08:35:53.228Z,51.18
2024-03-27T08:36:53.238Z,52.65
2024-03-27T08:38:03.262Z,50.46
2024-03-27T08:38:54.243Z,50.56
2024-03-27T08:39:53.253Z,50.73
2024-03-27T08:40:53.255Z,51.09
2024-03-27T08:41:53.237Z,51.00
2024-03-27T08:42:53.239Z,51.50
2024-03-27T08:43:53.245Z,50.39
2024-03-27T08:44:53.261Z,50.76
2024-03-27T08:45:53.268Z,52.50
2024-03-27T08:46:53.260Z,51.52
2024-03-27T08:47:53.274Z,51.83
2024-03-27T08:48:53.282Z,53.14
2024-03-27T08:49:53.283Z,51.57
2024-03-27T08:50:53.305Z,51.44
2024-03-27T08:51:53.299Z,51.74
2024-03-27T08:52:53.284Z,51.53
2024-03-27T08:53:55.332Z,51.91
2024-03-27T08:54:53.290Z,51.40
2024-03-27T08:55:53.290Z,51.63
2024-03-27T08:56:53.298Z,51.91
2024-03-27T08:57:53.316Z,51.98
2024-03-27T08:58:53.303Z,51.86
2024-03-27T08:59:54.337Z,50.99
2024-03-27T09:00:53.291Z,52.32
2024-03-27T09:01:53.295Z,51.14
2024-03-27T09:02:53.302Z,51.72
2024-03-27T09:03:53.307Z,52.06
2024-03-27T09:04:53.289Z,52.24
2024-03-27T09:05:55.320Z,52.52
2024-03-27T09:06:53.333Z,52.24
2024-03-27T09:07:53.346Z,51.99
2024-03-27T09:08:53.389Z,52.72
2024-03-27T09:09:53.350Z,51.73
2024-03-27T09:10:53.377Z,52.17
2024-03-27T09:11:55.768Z,51.29
2024-03-27T09:12:53.341Z,51.35
2024-03-27T09:14:00.603Z,50.00
2024-03-27T09:15:00.643Z,50.00
2024-03-27T09:16:00.607Z,50.00
2024-03-27T09:17:00.610Z,50.00
2024-03-27T09:18:00.630Z,50.00
2024-03-27T09:19:00.616Z,50.19
2024-03-27T09:20:00.631Z,51.44
2024-03-27T09:21:00.629Z,51.60
2024-03-27T09:22:00.620Z,50.56
2024-03-27T09:23:00.629Z,50.18
2024-03-27T09:24:00.623Z,52.28
2024-03-27T09:25:00.654Z,51.83
2024-03-27T09:26:00.636Z,50.75
2024-03-27T09:27:00.622Z,51.07
2024-03-27T09:28:00.637Z,50.65
2024-03-27T09:29:00.615Z,50.79
2024-03-27T09:30:02.574Z,52.28
2024-03-27T09:31:00.630Z,52.29
2024-03-27T09:32:00.641Z,51.93
2024-03-27T09:33:00.657Z,51.65
2024-03-27T09:34:00.633Z,51.29
2024-03-27T09:35:00.655Z,50.91
2024-03-27T09:36:02.833Z,51.07
2024-03-27T09:37:00.636Z,51.10
2024-03-27T09:38:00.672Z,51.19
2024-03-27T09:39:00.634Z,51.13
2024-03-27T09:40:00.641Z,50.54
2024-03-27T09:41:00.665Z,51.69
2024-03-27T09:42:00.653Z,50.79
2024-03-27T09:43:00.655Z,50.73
2024-03-27T09:44:00.642Z,50.46
2024-03-27T09:45:00.651Z,50.61
2024-03-27T09:46:00.650Z,51.11
2024-03-27T09:47:00.658Z,52.93
2024-03-27T09:48:00.666Z,50.89
2024-03-27T09:49:00.663Z,50.39
2024-03-27T09:50:00.669Z,51.59
2024-03-27T09:51:00.667Z,51.29
2024-03-27T09:52:00.661Z,50.93
2024-03-27T09:53:00.673Z,50.71
2024-03-27T09:54:00.663Z,51.57
2024-03-27T09:55:00.665Z,51.27
2024-03-27T09:56:00.684Z,52.14
2024-03-27T09:57:00.670Z,51.04
2024-03-27T09:58:00.664Z,51.41
2024-03-27T09:59:00.686Z,51.40
2024-03-27T10:00:00.719Z,51.43
2024-03-27T10:01:00.696Z,51.28
2024-03-27T10:02:00.678Z,51.45
2024-03-27T10:03:00.684Z,50.59
2024-03-27T10:04:00.663Z,51.51
2024-03-27T10:05:00.714Z,50.00
2024-03-27T10:06:00.678Z,51.24
2024-03-27T10:07:00.678Z,50.61
2024-03-27T10:08:00.731Z,51.34
2024-03-27T10:09:00.702Z,51.31
2024-03-27T10:10:00.708Z,51.41
2024-03-27T10:11:00.685Z,51.01
2024-03-27T10:12:00.683Z,51.69
2024-03-27T10:13:00.690Z,51.20
2024-03-27T10:14:00.697Z,51.24
2024-03-27T10:15:00.720Z,51.49
2024-03-27T10:16:00.703Z,51.83
2024-03-27T10:17:00.691Z,51.71
2024-03-27T10:18:00.696Z,50.10
2024-03-27T10:19:00.698Z,50.49
2024-03-27T10:20:00.730Z,51.97
2024-03-27T10:21:00.714Z,52.35
2024-03-27T10:22:00.708Z,50.94
2024-03-27T10:23:00.712Z,52.09
2024-03-27T10:24:00.697Z,51.90
2024-03-27T10:25:00.692Z,51.23
2024-03-27T10:26:00.701Z,51.24
2024-03-27T10:27:00.706Z,52.15
2024-03-27T10:28:00.711Z,51.50
2024-03-27T10:29:00.720Z,51.17
2024-03-27T10:30:00.714Z,51.58
2024-03-27T10:31:00.726Z,51.73
2024-03-27T10:32:00.709Z,52.98
2024-03-27T10:33:00.737Z,51.84
2024-03-27T10:34:00.791Z,52.06
2024-03-27T10:35:06.420Z,51.41
2024-03-27T10:36:01.881Z,51.52
2024-03-27T10:37:00.900Z,51.55
2024-03-27T10:38:00.861Z,51.81
2024-03-27T10:39:00.854Z,51.36
2024-03-27T10:40:00.879Z,52.40
2024-03-27T10:41:00.912Z,52.88
2024-03-27T10:42:00.880Z,52.08
2024-03-27T10:43:00.875Z,53.05
2024-03-27T10:44:00.865Z,52.90
2024-03-27T10:45:00.914Z,53.31
2024-03-27T10:46:00.861Z,51.77
2024-03-27T10:47:00.871Z,52.17
2024-03-27T10:48:00.868Z,52.79
2024-03-27T10:49:00.869Z,52.20
2024-03-27T10:50:00.924Z,52.31
2024-03-27T10:51:00.983Z,52.41
2024-03-27T10:52:01.041Z,51.94
2024-03-27T10:53:01.195Z,52.76
2024-03-27T10:54:01.228Z,53.06
2024-03-27T10:55:01.230Z,52.98
2024-03-27T10:56:01.269Z,52.13
2024-03-27T10:57:01.319Z,52.26
2024-03-27T10:58:01.386Z,51.42
2024-03-27T10:59:01.424Z,52.95
2024-03-27T11:00:01.482Z,53.17
2024-03-27T11:01:01.546Z,52.57
2024-03-27T11:02:01.610Z,52.92
2024-03-27T11:03:01.660Z,53.48
2024-03-27T11:04:01.736Z,53.88
2024-03-27T11:05:01.778Z,53.41
2024-03-27T11:06:01.831Z,53.76
2024-03-27T11:07:01.882Z,53.99
2024-03-27T11:08:01.937Z,52.56
2024-03-27T11:09:01.996Z,53.14
2024-03-27T11:10:02.066Z,53.56
2024-03-27T11:11:02.098Z,53.91
2024-03-27T11:12:02.162Z,54.42
2024-03-27T11:13:02.205Z,54.57
2024-03-27T11:14:02.271Z,53.99
2024-03-27T11:15:02.315Z,54.26
2024-03-27T11:16:02.356Z,54.42
2024-03-27T11:17:02.404Z,53.67
2024-03-27T11:18:02.482Z,54.93
2024-03-27T11:19:02.518Z,55.41
2024-03-27T11:20:02.569Z,54.40
2024-03-27T11:21:02.604Z,54.94
2024-03-27T11:22:02.663Z,55.13
2024-03-27T11:23:02.713Z,54.06
2024-03-27T11:24:02.761Z,54.63
2024-03-27T11:25:02.818Z,55.31
2024-03-27T11:26:02.866Z,54.50
2024-03-27T11:27:02.907Z,55.00
2024-03-27T11:28:02.971Z,54.71
2024-03-27T11:29:03.019Z,54.62
2024-03-27T11:30:03.064Z,54.23
2024-03-27T11:31:03.129Z,54.46
2024-03-27T11:32:03.171Z,55.00
2024-03-27T11:33:03.218Z,55.23
2024-03-27T11:34:03.282Z,54.30
2024-03-27T11:35:03.360Z,55.39
2024-03-27T11:36:03.371Z,54.27
2024-03-27T11:37:03.426Z,55.17
2024-03-27T11:38:03.496Z,53.54
2024-03-27T11:39:03.503Z,54.56
2024-03-27T11:40:03.566Z,54.98
2024-03-27T11:41:03.620Z,54.23
2024-03-27T11:42:03.655Z,53.94
2024-03-27T11:43:03.722Z,54.71
2024-03-27T11:44:03.763Z,55.18
2024-03-27T11:45:03.812Z,56.02
2024-03-27T11:46:04.208Z,54.99
2024-03-27T11:47:03.900Z,54.84
2024-03-27T11:48:03.971Z,55.14
2024-03-27T11:49:03.999Z,56.00
2024-03-27T11:50:04.040Z,54.71
2024-03-27T11:51:14.156Z,56.90
2024-03-27T11:52:04.088Z,56.98
2024-03-27T11:53:04.094Z,57.09
2024-03-27T11:54:04.100Z,57.27
2024-03-27T11:55:04.078Z,57.66
2024-03-27T11:56:04.090Z,56.87
2024-03-27T11:57:04.091Z,55.85
2024-03-27T11:58:04.093Z,55.09
2024-03-27T11:59:04.092Z,55.05
2024-03-27T12:00:04.131Z,56.06
2024-03-27T12:01:05.225Z,54.68
2024-03-27T12:02:04.091Z,55.14
2024-03-27T12:03:04.099Z,55.19
2024-03-27T12:04:04.096Z,54.27
2024-03-27T12:05:04.105Z,54.13
2024-03-27T12:06:04.111Z,54.82
2024-03-27T12:07:04.116Z,55.88
2024-03-27T12:08:05.088Z,54.52
2024-03-27T12:09:04.109Z,55.25
2024-03-27T12:10:04.102Z,54.61
2024-03-27T12:11:04.109Z,55.05
2024-03-27T12:12:04.121Z,55.55
2024-03-27T12:13:04.128Z,55.26
2024-03-27T12:14:04.162Z,55.44
2024-03-27T12:15:04.203Z,55.74
2024-03-27T12:16:04.210Z,55.23
2024-03-27T12:17:04.228Z,55.13
2024-03-27T12:18:04.216Z,55.49
2024-03-27T12:19:04.207Z,55.75
2024-03-27T12:20:04.216Z,55.13
2024-03-27T12:21:04.215Z,54.70
2024-03-27T12:22:04.212Z,54.23
2024-03-27T12:23:04.226Z,56.27
2024-03-27T12:24:04.210Z,54.85
2024-03-27T12:25:04.780Z,54.99
2024-03-27T12:26:04.238Z,55.03
2024-03-27T12:27:04.234Z,55.78
2024-03-27T12:28:06.156Z,56.22
2024-03-27T12:29:04.237Z,56.22
2024-03-27T12:30:04.234Z,56.33
2024-03-27T12:31:04.250Z,56.02
2024-03-27T12:32:04.223Z,56.27
2024-03-27T12:33:04.227Z,55.57
2024-03-27T12:34:04.236Z,55.41
2024-03-27T12:35:04.920Z,56.38
2024-03-27T12:36:04.230Z,56.07
2024-03-27T12:37:04.241Z,56.02
2024-03-27T12:38:04.233Z,55.73
2024-03-27T12:39:04.232Z,55.06
2024-03-27T12:40:04.230Z,56.15
2024-03-27T12:41:04.243Z,56.58
2024-03-27T12:42:04.244Z,56.07
2024-03-27T12:43:04.247Z,57.14
2024-03-27T12:44:04.260Z,56.24
2024-03-27T12:45:04.252Z,56.08
2024-03-27T12:46:04.257Z,55.85
2024-03-27T12:47:04.252Z,55.01
2024-03-27T12:48:04.243Z,54.43
2024-03-27T12:49:04.282Z,55.87
2024-03-27T12:50:04.252Z,55.37
2024-03-27T12:51:04.372Z,56.22
2024-03-27T12:52:04.308Z,55.64
2024-03-27T12:53:04.292Z,55.70
2024-03-27T12:54:04.293Z,54.42